createdAt,value
2023-03-28T00:01:53.396Z,91.30
2023-03-28T00:04:22.918Z,91.40
2023-03-28T00:06:53.463Z,91.50
2023-03-28T00:09:21.985Z,92.00
2023-03-28T00:11:49.863Z,93.30
2023-03-28T00:14:17.615Z,94.30
2023-03-28T00:16:46.853Z,94.50
2023-03-28T00:19:16.689Z,94.50
2023-03-28T00:21:46.836Z,94.40
2023-03-28T00:24:17.676Z,94.30
2023-03-28T00:26:49.497Z,94.50
2023-03-28T00:29:21.299Z,94.40
2023-03-28T00:31:50.770Z,93.70
2023-03-28T00:34:18.985Z,93.40
2023-03-28T00:36:46.775Z,93.30
2023-03-28T00:39:15.884Z,93.50
2023-03-28T00:41:45.321Z,93.20
2023-03-28T00:44:41.897Z,93.30
2023-03-28T00:47:25.780Z,93.00
2023-03-28T00:49:56.411Z,92.90
2023-03-28T00:52:30.518Z,92.60
2023-03-28T00:55:00.538Z,92.00
2023-03-28T00:57:29.771Z,91.70
2023-03-28T00:59:57.688Z,92.00
2023-03-28T01:02:25.643Z,91.80
2023-03-28T01:04:59.516Z,91.50
2023-03-28T01:07:35.358Z,91.30
2023-03-28T01:10:05.969Z,91.70
2023-03-28T01:12:34.815Z,91.50
2023-03-28T01:15:04.511Z,91.20
2023-03-28T01:17:32.499Z,91.20
2023-03-28T01:20:13.262Z,91.10
2023-03-28T01:23:13.823Z,90.80
2023-03-28T01:26:22.598Z,91.00
2023-03-28T01:29:20.649Z,91.10
2023-03-28T01:32:18.192Z,91.10
2023-03-28T01:35:19.147Z,91.00
2023-03-28T01:37:52.850Z,91.00
2023-03-28T01:40:31.813Z,91.30
2023-03-28T01:43:09.184Z,91.40
2023-03-28T01:45:48.192Z,91.50
2023-03-28T01:48:24.571Z,91.40
2023-03-28T01:50:59.895Z,91.30
2023-03-28T01:53:33.380Z,91.50
2023-03-28T01:56:05.133Z,91.60
2023-03-28T01:58:42.816Z,91.70
2023-03-28T02:01:14.279Z,92.00
2023-03-28T02:03:46.514Z,92.00
2023-03-28T02:06:17.160Z,92.10
2023-03-28T02:08:48.599Z,92.50
2023-03-28T02:11:16.399Z,92.70
2023-03-28T02:13:48.255Z,92.90
2023-03-28T02:16:18.938Z,92.80
2023-03-28T02:18:53.429Z,92.50
2023-03-28T02:21:24.903Z,92.60
2023-03-28T02:23:56.121Z,92.70
2023-03-28T02:26:27.331Z,92.60
2023-03-28T02:28:58.571Z,92.40
2023-03-28T02:31:26.581Z,92.40
2023-03-28T02:33:56.142Z,91.60
2023-03-28T02:36:47.576Z,91.80
2023-03-28T02:39:40.895Z,91.80
2023-03-28T02:42:30.297Z,91.70
2023-03-28T02:45:17.273Z,91.30
2023-03-28T02:47:57.986Z,91.40
2023-03-28T02:50:35.610Z,91.50
2023-03-28T02:53:10.096Z,91.40
2023-03-28T02:55:46.275Z,91.50
2023-03-28T02:58:22.207Z,91.70
2023-03-28T03:00:51.619Z,91.70
2023-03-28T03:03:19.905Z,91.90
2023-03-28T04:40:40.541Z,94.00
2023-03-28T04:43:10.077Z,94.10
2023-03-28T04:45:37.954Z,94.20
2023-03-28T04:48:07.206Z,94.10
2023-03-28T04:50:35.907Z,93.80
2023-03-28T04:53:04.370Z,93.60
2023-03-28T04:55:46.155Z,93.40
2023-03-28T04:58:15.473Z,93.30
2023-03-28T05:00:44.236Z,93.40
2023-03-28T05:03:14.323Z,93.40
2023-03-28T05:05:42.254Z,93.60
2023-03-28T08:57:42.420Z,47.70
2023-03-28T09:00:17.616Z,47.70
2023-03-28T09:10:20.866Z,41.60
2023-03-28T09:13:01.698Z,42.30
2023-03-28T09:23:19.234Z,45.50
2023-03-28T09:25:52.543Z,46.50
2023-03-28T09:28:32.953Z,44.20
2023-03-28T09:31:02.058Z,43.70
2023-03-28T09:33:33.452Z,42.10
2023-03-28T09:36:03.068Z,41.90
2023-03-28T09:38:37.390Z,41.00
2023-03-28T09:41:12.140Z,41.80
2023-03-28T09:43:47.399Z,41.20
2023-03-28T09:46:19.795Z,40.20
2023-03-28T09:48:48.262Z,41.10
2023-03-28T09:51:18.248Z,39.20
2023-03-28T09:53:47.654Z,38.30
2023-03-28T09:56:24.462Z,39.30
2023-03-28T09:58:54.396Z,35.60
2023-03-28T10:08:47.898Z,39.60
2023-03-28T10:11:17.492Z,39.00
2023-03-28T10:13:48.342Z,37.60
2023-03-28T10:23:45.398Z,36.10
2023-03-28T10:26:15.411Z,36.10
2023-03-28T10:36:12.707Z,36.10
2023-03-28T10:46:19.081Z,40.60
2023-03-28T10:48:49.570Z,41.90
2023-03-28T10:51:23.872Z,37.80
2023-03-28T10:54:31.295Z,36.70
2023-03-28T10:57:01.739Z,37.90
2023-03-28T10:59:45.403Z,33.70
2023-03-28T11:02:48.758Z,32.10
2023-03-28T11:05:29.170Z,33.10
2023-03-28T11:08:03.419Z,34.50
2023-03-28T11:18:09.983Z,41.40
2023-03-28T11:20:54.648Z,41.80
2023-03-28T11:23:38.850Z,40.10
2023-03-28T11:26:10.700Z,40.20
2023-03-28T11:28:53.890Z,38.40
2023-03-28T11:31:27.637Z,35.80
2023-03-28T11:34:02.883Z,34.90
2023-03-28T11:36:37.227Z,34.60
2023-03-28T11:39:12.833Z,36.40
2023-03-28T11:41:42.988Z,31.10
2023-03-28T11:44:17.301Z,34.20
2023-03-28T11:46:51.424Z,32.30
2023-03-28T11:49:25.289Z,31.40
2023-03-28T11:51:59.322Z,30.10
2023-03-28T11:54:33.380Z,29.70
2023-03-28T11:57:04.968Z,30.60
2023-03-28T11:59:40.399Z,32.20
2023-03-28T12:02:19.197Z,33.00
2023-03-28T12:04:55.787Z,32.60
2023-03-28T12:07:30.537Z,33.90
2023-03-28T12:10:07.172Z,36.20
2023-03-28T12:12:52.912Z,36.90
2023-03-28T12:15:31.333Z,37.80
2023-03-28T12:18:03.771Z,38.30
2023-03-28T12:20:38.455Z,34.80
2023-03-28T12:23:22.312Z,31.80
2023-03-28T12:25:58.020Z,32.00
2023-03-28T12:28:32.182Z,32.40
2023-03-28T12:31:08.080Z,33.00
2023-03-28T12:33:45.855Z,32.10
2023-03-28T12:36:24.315Z,33.00
2023-03-28T12:39:01.394Z,34.70
2023-03-28T12:41:33.232Z,35.10
2023-03-28T12:44:04.397Z,35.60
2023-03-28T12:46:38.482Z,32.50
2023-03-28T12:49:09.548Z,32.00
2023-03-28T12:51:44.977Z,33.10
2023-03-28T12:54:26.369Z,46.50
2023-03-28T12:57:06.266Z,56.60
2023-03-28T12:59:48.997Z,67.30
2023-03-28T13:02:25.990Z,70.70
2023-03-28T13:05:01.289Z,66.80
2023-03-28T13:07:44.989Z,70.20
2023-03-28T13:10:19.330Z,59.30
2023-03-28T13:12:56.632Z,58.60
2023-03-28T13:15:57.165Z,56.30
2023-03-28T13:18:29.845Z,53.90
2023-03-28T13:20:58.333Z,48.80
2023-03-28T13:23:46.809Z,47.50
2023-03-28T13:26:14.843Z,38.00
2023-03-28T13:28:45.831Z,38.30
2023-03-28T13:31:21.424Z,34.70
2023-03-28T13:33:53.969Z,37.60
2023-03-28T13:36:44.806Z,35.20
2023-03-28T13:39:25.458Z,36.60
2023-03-28T13:42:00.905Z,36.60
2023-03-28T13:44:43.695Z,36.30
2023-03-28T13:47:20.240Z,38.00
2023-03-28T13:49:52.065Z,38.90
2023-03-28T13:52:23.081Z,40.10
2023-03-28T13:54:54.855Z,41.20
2023-03-28T13:57:26.349Z,42.30
2023-03-28T13:59:56.481Z,43.80
2023-03-28T14:02:33.652Z,45.40
2023-03-28T14:05:14.604Z,46.00
2023-03-28T14:07:42.724Z,46.60
2023-03-28T14:10:30.010Z,46.10
2023-03-28T14:13:02.400Z,46.60
2023-03-28T14:15:32.067Z,45.70
2023-03-28T14:18:00.918Z,46.20
2023-03-28T14:20:30.278Z,45.70
2023-03-28T14:23:00.995Z,46.60
2023-03-28T14:25:31.484Z,45.00
2023-03-28T14:28:08.391Z,45.80
2023-03-28T14:30:40.702Z,45.50
2023-03-28T14:33:20.491Z,44.80
2023-03-28T14:35:58.354Z,45.60
2023-03-28T14:38:32.144Z,44.60
2023-03-28T14:41:21.344Z,46.00
2023-03-28T14:43:52.973Z,45.40
2023-03-28T14:46:24.323Z,44.30
2023-03-28T14:48:53.768Z,43.90
2023-03-28T14:51:22.652Z,42.80
2023-03-28T14:53:51.957Z,42.50
2023-03-28T14:56:25.683Z,42.10
2023-03-28T14:58:56.466Z,43.20
2023-03-28T15:01:25.353Z,42.70
2023-03-28T15:04:04.111Z,43.40
2023-03-28T15:06:34.164Z,43.70
2023-03-28T15:09:09.656Z,44.60
2023-03-28T15:11:43.544Z,44.70
2023-03-28T15:14:16.789Z,44.70
2023-03-28T15:16:48.016Z,44.50
2023-03-28T15:19:22.428Z,44.20
2023-03-28T15:21:56.036Z,44.00
2023-03-28T15:24:27.670Z,44.20
2023-03-28T15:26:59.169Z,44.50
2023-03-28T15:29:27.637Z,44.30
2023-03-28T15:32:01.101Z,43.80
2023-03-28T15:34:28.998Z,41.70
2023-03-28T15:37:01.441Z,41.50
2023-03-28T15:39:31.945Z,41.20
2023-03-28T15:42:29.565Z,41.80
2023-03-28T15:45:27.803Z,41.90
2023-03-28T15:47:59.552Z,40.90
2023-03-28T15:50:33.183Z,40.10
2023-03-28T15:53:03.565Z,40.50
2023-03-28T15:55:32.163Z,40.70
2023-03-28T15:58:00.487Z,41.00
2023-03-28T16:00:45.075Z,41.00
2023-03-28T16:03:32.514Z,35.40
2023-03-28T16:06:26.787Z,32.70
2023-03-28T16:09:15.567Z,31.90
2023-03-28T16:11:43.986Z,28.60
2023-03-28T16:14:16.795Z,28.80
2023-03-28T16:16:54.420Z,28.20
2023-03-28T16:19:24.476Z,28.70
2023-03-28T16:21:52.604Z,30.50
2023-03-28T16:24:20.661Z,28.50
2023-03-28T16:26:48.612Z,29.20
2023-03-28T16:29:16.767Z,29.00
2023-03-28T16:31:46.990Z,29.20
2023-03-28T16:34:16.188Z,29.40
2023-03-28T16:36:43.896Z,29.40
2023-03-28T16:39:11.958Z,29.70
2023-03-28T16:41:39.808Z,28.70
2023-03-28T16:44:07.612Z,29.10
2023-03-28T16:46:35.526Z,29.10
2023-03-28T16:49:03.518Z,30.10
2023-03-28T16:51:32.637Z,31.10
2023-03-28T16:54:00.692Z,31.90
2023-03-28T16:56:30.165Z,32.80
2023-03-28T16:58:57.976Z,33.60
2023-03-28T17:01:26.184Z,33.50
2023-03-28T17:03:55.588Z,34.50
2023-03-28T17:06:24.978Z,34.90
2023-03-28T17:08:54.459Z,34.40
2023-03-28T17:11:23.430Z,34.70
2023-03-28T17:13:53.480Z,35.00
2023-03-28T17:16:22.626Z,35.70
2023-03-28T17:18:51.262Z,36.00
2023-03-28T17:21:19.680Z,36.70
2023-03-28T17:23:50.716Z,36.90
2023-03-28T17:26:19.913Z,36.70
2023-03-28T17:28:47.701Z,37.20
2023-03-28T17:31:18.539Z,37.00
2023-03-28T17:33:48.346Z,37.90
2023-03-28T17:36:21.049Z,39.00
2023-03-28T17:38:49.853Z,39.50
2023-03-28T17:41:19.229Z,39.20
2023-03-28T17:43:47.339Z,40.40
2023-03-28T17:46:15.694Z,41.10
2023-03-28T17:48:43.714Z,41.40
2023-03-28T17:51:12.171Z,41.90
2023-03-28T17:53:41.105Z,41.80
2023-03-28T17:56:09.925Z,42.10
2023-03-28T17:58:39.329Z,43.80
2023-03-28T18:01:10.559Z,43.80
2023-03-28T18:03:39.081Z,44.40
2023-03-28T18:06:07.948Z,44.40
2023-03-28T18:08:35.789Z,44.80
2023-03-28T18:11:05.996Z,45.60
2023-03-28T18:13:33.968Z,45.80
2023-03-28T18:16:04.441Z,46.60
2023-03-28T18:18:32.826Z,47.00
2023-03-28T18:21:00.920Z,47.40
2023-03-28T18:23:28.659Z,47.70
2023-03-28T18:25:56.549Z,48.60
2023-03-28T18:28:24.354Z,48.40
2023-03-28T18:30:52.421Z,48.50
2023-03-28T18:33:22.592Z,48.90
2023-03-28T18:35:50.752Z,48.90
2023-03-28T18:38:18.893Z,48.80
2023-03-28T18:40:52.067Z,49.40
2023-03-28T18:43:20.135Z,49.80
2023-03-28T18:45:53.990Z,49.90
2023-03-28T18:48:23.561Z,50.30
2023-03-28T18:50:51.540Z,50.60
2023-03-28T18:53:19.364Z,50.70
2023-03-28T18:55:47.288Z,50.70
2023-03-28T18:58:15.031Z,51.00
2023-03-28T19:00:42.845Z,51.00
2023-03-28T19:03:10.777Z,51.00
2023-03-28T19:05:39.951Z,51.60
2023-03-28T19:08:07.656Z,52.10
2023-03-28T19:10:35.648Z,52.50
2023-03-28T19:13:03.426Z,53.70
2023-03-28T19:15:31.829Z,54.10
2023-03-28T19:18:02.284Z,54.50
2023-03-28T19:20:30.719Z,55.10
2023-03-28T19:22:59.913Z,55.50
2023-03-28T19:25:27.890Z,56.80
2023-03-28T19:27:55.932Z,57.30
2023-03-28T19:30:23.716Z,57.90
2023-03-28T19:32:51.516Z,58.40
2023-03-28T19:35:19.302Z,58.70
2023-03-28T19:37:47.018Z,59.00
2023-03-28T19:40:17.237Z,59.60
2023-03-28T19:42:45.302Z,60.00
2023-03-28T19:45:13.389Z,59.90
2023-03-28T19:47:41.465Z,60.20
2023-03-28T19:50:11.609Z,60.30
2023-03-28T19:52:39.730Z,60.00
2023-03-28T19:55:08.834Z,60.10
2023-03-28T19:57:38.078Z,60.00
2023-03-28T20:00:08.055Z,60.40
2023-03-28T20:02:37.369Z,60.70
2023-03-28T20:05:08.311Z,60.70
2023-03-28T20:07:36.179Z,60.40
2023-03-28T20:10:07.566Z,60.30
2023-03-28T20:12:40.187Z,60.30
2023-03-28T20:15:09.611Z,59.90
2023-03-28T20:17:37.946Z,60.20
2023-03-28T20:20:10.488Z,60.00
2023-03-28T20:22:38.830Z,59.90
2023-03-28T20:25:07.756Z,60.40
2023-03-28T20:27:41.908Z,60.60
2023-03-28T20:30:14.877Z,60.90
2023-03-28T20:32:42.771Z,60.90
2023-03-28T20:35:15.112Z,61.30
2023-03-28T20:37:42.973Z,61.40
2023-03-28T20:40:11.623Z,61.70
2023-03-28T20:42:40.983Z,62.40
2023-03-28T20:45:14.109Z,62.90
2023-03-28T20:47:50.044Z,63.30
2023-03-28T20:50:18.065Z,63.60
2023-03-28T20:52:46.086Z,64.60
2023-03-28T20:55:14.942Z,66.00
2023-03-28T20:57:46.127Z,66.00
2023-03-28T21:00:23.476Z,66.70
2023-03-28T21:02:53.733Z,66.80
2023-03-28T21:05:22.034Z,66.80
2023-03-28T21:07:52.942Z,67.10
2023-03-28T21:10:20.726Z,68.20
2023-03-28T21:12:50.859Z,68.80
2023-03-28T21:15:18.924Z,69.80
2023-03-28T21:17:49.508Z,70.20
2023-03-28T21:20:18.419Z,70.10
2023-03-28T21:22:46.336Z,70.90
2023-03-28T21:25:14.143Z,70.60
2023-03-28T21:27:42.256Z,70.60
2023-03-28T21:30:13.991Z,69.90
2023-03-28T21:32:41.822Z,69.40
2023-03-28T21:35:10.322Z,69.30
2023-03-28T21:37:38.113Z,68.90
